Map

Track Data

SID SEASON NUMBER BASIN SUBBASIN NAME ISO_TIME NATURE LAT LON WMO_WIND WMO_PRES WMO_AGENCY TRACK_TYPE DIST2LAND LANDFALL IFLAG USA_AGENCY USA_ATCF_ID USA_LAT USA_LON USA_RECORD USA_STATUS USA_WIND USA_PRES USA_SSHS USA_R34_NE USA_R34_SE USA_R34_SW USA_R34_NW USA_R50_NE USA_R50_SE USA_R50_SW USA_R50_NW USA_R64_NE USA_R64_SE USA_R64_SW USA_R64_NW USA_POCI USA_ROCI USA_RMW USA_EYE TOKYO_LAT TOKYO_LON TOKYO_GRADE TOKYO_WIND TOKYO_PRES TOKYO_R50_DIR TOKYO_R50_LONG TOKYO_R50_SHORT TOKYO_R30_DIR TOKYO_R30_LONG TOKYO_R30_SHORT TOKYO_LAND CMA_LAT CMA_LON CMA_CAT CMA_WIND CMA_PRES HKO_LAT HKO_LON HKO_CAT HKO_WIND HKO_PRES NEWDELHI_LAT NEWDELHI_LON NEWDELHI_GRADE NEWDELHI_WIND NEWDELHI_PRES NEWDELHI_CI NEWDELHI_DP NEWDELHI_POCI REUNION_LAT REUNION_LON REUNION_TYPE REUNION_WIND REUNION_PRES REUNION_TNUM REUNION_CI REUNION_RMW REUNION_R34_NE REUNION_R34_SE REUNION_R34_SW REUNION_R34_NW REUNION_R50_NE REUNION_R50_SE REUNION_R50_SW REUNION_R50_NW REUNION_R64_NE REUNION_R64_SE REUNION_R64_SW REUNION_R64_NW BOM_LAT BOM_LON BOM_TYPE BOM_WIND BOM_PRES BOM_TNUM BOM_CI BOM_RMW BOM_R34_NE BOM_R34_SE BOM_R34_SW BOM_R34_NW BOM_R50_NE BOM_R50_SE BOM_R50_SW BOM_R50_NW BOM_R64_NE BOM_R64_SE BOM_R64_SW BOM_R64_NW BOM_ROCI BOM_POCI BOM_EYE BOM_POS_METHOD BOM_PRES_METHOD NADI_LAT NADI_LON NADI_CAT NADI_WIND NADI_PRES WELLINGTON_LAT WELLINGTON_LON WELLINGTON_WIND WELLINGTON_PRES DS824_LAT DS824_LON DS824_STAGE DS824_WIND DS824_PRES TD9636_LAT TD9636_LON TD9636_STAGE TD9636_WIND TD9636_PRES TD9635_LAT TD9635_LON TD9635_WIND TD9635_PRES TD9635_ROCI NEUMANN_LAT NEUMANN_LON NEUMANN_CLASS NEUMANN_WIND NEUMANN_PRES MLC_LAT MLC_LON MLC_CLASS MLC_WIND MLC_PRES USA_GUST BOM_GUST BOM_GUST_PER REUNION_GUST REUNION_GUST_PER USA_SEAHGT USA_SEARAD_NE USA_SEARAD_SE USA_SEARAD_SW USA_SEARAD_NW STORM_SPEED STORM_DIR
1897005S10135 1897 1 SP EA NOT_NAMED 1897-01-04 12:00:00 NR -10.1000 135.300 main 226 201 __________O___ -1 -10.1000 135.300 7 9 246
1897005S10135 1897 1 SI WA NOT_NAMED 1897-01-04 15:00:00 NR -10.2755 134.902 main 201 174 __________P___ -1 -10.2755 134.902 7 8 246
1897005S10135 1897 1 SI WA NOT_NAMED 1897-01-04 18:00:00 NR -10.4406 134.523 main 174 141 __________P___ -1 -10.4406 134.523 7 8 246
1897005S10135 1897 1 SI WA NOT_NAMED 1897-01-04 21:00:00 NR -10.5853 134.182 main 141 123 __________P___ -1 -10.5853 134.182 7 7 247
1897005S10135 1897 1 SI WA NOT_NAMED 1897-01-05 00:00:00 NR -10.7000 133.900 main 123 109 __________O___ -1 -10.7000 133.900 7 5 248
1897005S10135 1897 1 SI WA NOT_NAMED 1897-01-05 03:00:00 NR -10.7785 133.688 main 109 93 __________P___ -1 -10.7785 133.688 7 4 250
1897005S10135 1897 1 SI WA NOT_NAMED 1897-01-05 06:00:00 NR -10.8297 133.532 main 93 78 __________P___ -1 -10.8297 133.532 7 3 252
1897005S10135 1897 1 SI WA NOT_NAMED 1897-01-05 09:00:00 NR -10.8661 133.410 main 78 71 __________P___ -1 -10.8661 133.410 7 2 253
1897005S10135 1897 1 SI WA NOT_NAMED 1897-01-05 12:00:00 NR -10.9000 133.300 main 71 64 __________O___ -1 -10.9000 133.300 7 2 251
1897005S10135 1897 1 SI WA NOT_NAMED 1897-01-05 15:00:00 NR -10.9377 133.192 main 64 49 __________P___ -1 -10.9377 133.192 7 2 250
1897005S10135 1897 1 SI WA NOT_NAMED 1897-01-05 18:00:00 NR -10.9773 133.087 main 49 46 __________P___ -1 -10.9773 133.087 7 2 248
1897005S10135 1897 1 SI WA NOT_NAMED 1897-01-05 21:00:00 NR -11.0283 132.964 main 46 33 __________P___ -1 -11.0283 132.964 7 3 247
1897005S10135 1897 1 SI WA NOT_NAMED 1897-01-06 00:00:00 NR -11.1000 132.800 main 35 15 __________O___ -1 -11.1000 132.800 7 4 247
1897005S10135 1897 1 SI WA NOT_NAMED 1897-01-06 03:00:00 NR -11.1955 132.556 main 15 0 __________P___ -1 -11.1955 132.556 7 6 248
1897005S10135 1897 1 SI WA NOT_NAMED 1897-01-06 06:00:00 NR -11.3127 132.273 main 0 0 __________P___ -1 -11.3127 132.273 7 6 246
1897005S10135 1897 1 SI WA NOT_NAMED 1897-01-06 09:00:00 NR -11.4486 131.978 main 0 0 __________P___ -1 -11.4486 131.978 7 6 243
1897005S10135 1897 1 SI WA NOT_NAMED 1897-01-06 12:00:00 NR -11.6000 131.700 main 21 10 __________O___ -1 -11.6000 131.700 7 6 239
1897005S10135 1897 1 SI WA NOT_NAMED 1897-01-06 15:00:00 NR -11.7524 131.466 main 22 11 __________P___ -1 -11.7524 131.466 7 5 234
1897005S10135 1897 1 SI WA NOT_NAMED 1897-01-06 18:00:00 NR -11.9199 131.255 main 22 15 __________P___ -1 -11.9199 131.255 7 5 228
1897005S10135 1897 1 SI WA NOT_NAMED 1897-01-06 21:00:00 NR -12.1025 131.066 main 15 10 __________P___ -1 -12.1025 131.066 7 5 222
1897005S10135 1897 1 SI WA NOT_NAMED 1897-01-07 00:00:00 NR -12.3000 130.900 main 10 0 __________O___ -1 -12.3000 130.900 7 5 219
1897005S10135 1897 1 SI WA NOT_NAMED 1897-01-07 03:00:00 NR -12.5106 130.729 main 0 0 __________P___ -1 -12.5106 130.729 7 5 215
1897005S10135 1897 1 SI WA NOT_NAMED 1897-01-07 06:00:00 NR -12.7350 130.583 main 10 0 __________P___ -1 -12.7350 130.583 7 5 209
1897005S10135 1897 1 SI WA NOT_NAMED 1897-01-07 09:00:00 NR -12.9669 130.470 main 0 0 __________P___ -1 -12.9669 130.470 7 5 201
1897005S10135 1897 1 SI WA NOT_NAMED 1897-01-07 12:00:00 NR -13.2000 130.400 main 0 0 __________O___ -1 -13.2000 130.400 7 5 201
1897005S10135 1897 1 SI WA NOT_NAMED 1897-01-07 15:00:00 NR -13.4123 130.297 main 0 0 __________P___ -1 -13.4123 130.297 7 5 199
1897005S10135 1897 1 SI WA NOT_NAMED 1897-01-07 18:00:00 NR -13.6266 130.249 main 0 0 __________P___ -1 -13.6266 130.249 7 4 178
1897005S10135 1897 1 SI WA NOT_NAMED 1897-01-07 21:00:00 NR -13.8527 130.301 main 0 0 __________P___ -1 -13.8527 130.301 7 5 153
1897005S10135 1897 1 SI WA NOT_NAMED 1897-01-08 00:00:00 NR -14.1000 130.500 main 0 0 __________O___ -1 -14.1000 130.500 7 8 133
1897005S10135 1897 1 SI WA NOT_NAMED 1897-01-08 03:00:00 NR -14.3871 130.894 main 0 0 __________P___ -1 -14.3871 130.894 7 11 123
1897005S10135 1897 1 SI WA NOT_NAMED 1897-01-08 06:00:00 NR -14.6934 131.434 main 0 0 __________P___ -1 -14.6934 131.434 7 13 119
1897005S10135 1897 1 SI WA NOT_NAMED 1897-01-08 09:00:00 NR -15.0027 132.057 main 0 0 __________P___ -1 -15.0027 132.057 7 14 116
1897005S10135 1897 1 SI WA NOT_NAMED 1897-01-08 12:00:00 NR -15.3000 132.700 main 0 0 __________O___ -1 -15.3000 132.700 7 13 116
1897005S10135 1897 1 SI WA NOT_NAMED 1897-01-08 15:00:00 NR -15.5724 133.284 main 0 0 __________P___ -1 -15.5724 133.284 7 13 115
1897005S10135 1897 1 SI WA NOT_NAMED 1897-01-08 18:00:00 NR -15.8299 133.873 main 0 0 __________P___ -1 -15.8299 133.873 7 12 114
1897005S10135 1897 1 SI WA NOT_NAMED 1897-01-08 21:00:00 NR -16.0725 134.450 main 0 0 __________P___ -1 -16.0725 134.450 7 12 113
1897005S10135 1897 1 SP EA NOT_NAMED 1897-01-09 00:00:00 NR -16.3000 135.000 main 0 0 __________O___ -1 -16.3000 135.000 7 11 113
1897005S10135 1897 1 SP EA NOT_NAMED 1897-01-09 03:00:00 NR -16.5222 135.528 main 0 0 __________P___ -1 -16.5222 135.528 7 11 114
1897005S10135 1897 1 SP EA NOT_NAMED 1897-01-09 06:00:00 NR -16.7296 136.025 main 0 0 __________P___ -1 -16.7296 136.025 7 10 114
1897005S10135 1897 1 SP EA NOT_NAMED 1897-01-09 09:00:00 NR -16.9223 136.485 main 0 0 __________P___ -1 -16.9223 136.485 7 9 114
1897005S10135 1897 1 SP EA NOT_NAMED 1897-01-09 12:00:00 NR -17.1000 136.900 main 0 0 __________O___ -1 -17.1000 136.900 7 8 115
1897005S10135 1897 1 SP EA NOT_NAMED 1897-01-09 15:00:00 NR -17.2761 137.281 main 0 0 __________P___ -1 -17.2761 137.281 7 8 116
1897005S10135 1897 1 SP EA NOT_NAMED 1897-01-09 18:00:00 NR -17.4370 137.618 main 0 0 __________P___ -1 -17.4370 137.618 7 7 116
1897005S10135 1897 1 SP EA NOT_NAMED 1897-01-09 21:00:00 NR -17.5794 137.921 main 0 0 __________P___ -1 -17.5794 137.921 7 6 115
1897005S10135 1897 1 SP EA NOT_NAMED 1897-01-10 00:00:00 NR -17.7000 138.200 main 0 0 __________O___ -1 -17.7000 138.200 7 6 113
1897005S10135 1897 1 SP EA NOT_NAMED 1897-01-10 03:00:00 NR -17.8045 138.476 main 0 0 __________P___ -1 -17.8045 138.476 7 5 110
1897005S10135 1897 1 SP EA NOT_NAMED 1897-01-10 06:00:00 NR -17.8872 138.730 main 0 0 __________P___ -1 -17.8872 138.730 7 5 107
1897005S10135 1897 1 SP EA NOT_NAMED 1897-01-10 09:00:00 NR -17.9514 138.969 main 0 0 __________P___ -1 -17.9514 138.969 7 5 104
1897005S10135 1897 1 SP EA NOT_NAMED 1897-01-10 12:00:00 NR -18.0000 139.200 main 0 0 __________O___ -1 -18.0000 139.200 7 4 101
1897005S10135 1897 1 SP EA NOT_NAMED 1897-01-10 15:00:00 NR -18.0393 139.432 main 0 0 __________P___ -1 -18.0393 139.432 7 4 98
1897005S10135 1897 1 SP EA NOT_NAMED 1897-01-10 18:00:00 NR -18.0648 139.658 main 0 0 __________P___ -1 -18.0648 139.658 7 4 96
1897005S10135 1897 1 SP EA NOT_NAMED 1897-01-10 21:00:00 NR -18.0830 139.879 main 0 0 __________P___ -1 -18.0830 139.879 7 4 95
1897005S10135 1897 1 SP EA NOT_NAMED 1897-01-11 00:00:00 NR -18.1000 140.100 main 0 0 __________O___ -1 -18.1000 140.100 7 4 96
1897005S10135 1897 1 SP EA NOT_NAMED 1897-01-11 03:00:00 NR -18.1290 140.329 main 0 0 __________P___ -1 -18.1290 140.329 7 4 98
1897005S10135 1897 1 SP EA NOT_NAMED 1897-01-11 06:00:00 NR -18.1574 140.557 main 0 0 __________P___ -1 -18.1574 140.557 7 4 97
1897005S10135 1897 1 SP EA NOT_NAMED 1897-01-11 09:00:00 NR -18.1821 140.782 main 0 0 __________P___ -1 -18.1821 140.782 7 4 96
1897005S10135 1897 1 SP EA NOT_NAMED 1897-01-11 12:00:00 NR -18.2000 141.000 main 0 0 __________O___ -1 -18.2000 141.000 7 4 93
1897005S10135 1897 1 SP EA NOT_NAMED 1897-01-11 15:00:00 NR -18.2072 141.219 main 0 0 __________P___ -1 -18.2072 141.219 7 4 91
1897005S10135 1897 1 SP EA NOT_NAMED 1897-01-11 18:00:00 NR -18.2075 141.430 main 0 0 __________P___ -1 -18.2075 141.430 7 4 90
1897005S10135 1897 1 SP EA NOT_NAMED 1897-01-11 21:00:00 NR -18.2041 141.626 main 0 0 __________P___ -1 -18.2041 141.626 7 4 89
1897005S10135 1897 1 SP EA NOT_NAMED 1897-01-12 00:00:00 NR -18.2000 141.800 main 0 0 __________O___ -1 -18.2000 141.800 7 3 90
1897005S10135 1897 1 SP EA NOT_NAMED 1897-01-12 03:00:00 NR -18.2039 141.942 main 0 0 __________P___ -1 -18.2039 141.942 7 3 92
1897005S10135 1897 1 SP EA NOT_NAMED 1897-01-12 06:00:00 NR -18.2073 142.065 main 0 0 __________P___ -1 -18.2073 142.065 7 2 91
1897005S10135 1897 1 SP EA NOT_NAMED 1897-01-12 09:00:00 NR -18.2071 142.180 main 0 0 __________P___ -1 -18.2071 142.180 7 2 88
1897005S10135 1897 1 SP EA NOT_NAMED 1897-01-12 12:00:00 NR -18.2000 142.300 main 0 0 __________O___ -1 -18.2000 142.300 7 2 84
1897005S10135 1897 1 SP EA NOT_NAMED 1897-01-12 15:00:00 NR -18.1839 142.435 main 0 0 __________P___ -1 -18.1839 142.435 7 3 82
1897005S10135 1897 1 SP EA NOT_NAMED 1897-01-12 18:00:00 NR -18.1602 142.583 main 0 0 __________P___ -1 -18.1602 142.583 7 3 80
1897005S10135 1897 1 SP EA NOT_NAMED 1897-01-12 21:00:00 NR -18.1314 142.739 main 0 0 __________P___ -1 -18.1314 142.739 7 3 79
1897005S10135 1897 1 SP EA NOT_NAMED 1897-01-13 00:00:00 NR -18.1000 142.900 main 0 __________O___ -1 -18.1000 142.900 7 3 79

Digital Typhoon Data and Search

About IBTrACS Database

This database is a web-friendly format of International Best Track Archive for Climate Stewardship (IBTrACS), a global best track data archive curated by NOAA dating back to 1842.

Updated: 2021-10-27